»·PEaware :: AAL999 KLAX-KLAS

AAL999 :: KLAX-KLAS

FLIGHT INFORMATION

Flight Status: Arrived
Operator:
American Airlines
More flights by this operator :: More flights under this callsign
Pilot: Thomas Rivest (5030)
Aircraft: AIRBUS A319
(A319)
More flights by this aircraft type
Origin: KLAX Los Angeles Intl
United States
Destination: KLAS McCarran Intl
United States
More flights between these airports :: More routes between these airports
Route: +LOOP9 DAG KEPEC3
File this flight plan on PilotEdge
Remarks:
Altitude:
(Current/Filed)
29,000ft
Speed:
(Current/Filed)
310kts
Departed: 11-Jan-17 01:26 PM
Arrived: 11-Jan-17 02:09 PM
Distance/Time
Traveled:
205nm/0:43
Distance/Time
To Go:
Arrived

Flight Plot

Page will automatically refresh every two minutes.


Map Options




Map Legend


Flown Route
Filed Route
Departure Airport
Arrival Airport
Navaid (VOR, NDB)
Fix

Horizontal Profiles

Position Reports

Time Latitude Longitude Heading Altitude Ground
Speed
11-Jan-17 13:00 33.943964 -118.411472 82 140ft 0kts
11-Jan-17 13:01 33.943964 -118.411472 82 140ft 0kts
11-Jan-17 13:02 33.943964 -118.411472 82 140ft 0kts
11-Jan-17 13:03 33.943964 -118.411472 82 140ft 0kts
11-Jan-17 13:04 33.943964 -118.411472 82 140ft 0kts
11-Jan-17 13:05 33.943964 -118.411472 82 140ft 0kts
11-Jan-17 13:06 33.943964 -118.411472 82 140ft 0kts
11-Jan-17 13:07 33.943964 -118.411472 82 140ft 0kts
11-Jan-17 13:08 33.943964 -118.411472 82 140ft 0kts
11-Jan-17 13:09 33.943964 -118.411472 82 140ft 0kts
11-Jan-17 13:10 33.943964 -118.411472 82 140ft 0kts
11-Jan-17 13:11 33.943964 -118.411472 82 140ft 0kts
11-Jan-17 13:12 33.943964 -118.411472 82 140ft 0kts
11-Jan-17 13:13 33.943964 -118.411472 82 140ft 0kts
11-Jan-17 13:14 33.943964 -118.411472 82 140ft 0kts
11-Jan-17 13:15 33.943948 -118.411628 82 140ft 2kts
11-Jan-17 13:16 33.943860 -118.412496 82 140ft 0kts
11-Jan-17 13:17 33.943860 -118.412495 82 140ft 0kts
11-Jan-17 13:18 33.943276 -118.412505 170 140ft 0kts
11-Jan-17 13:19 33.942594 -118.412382 172 140ft 9kts
11-Jan-17 13:20 33.937611 -118.411072 82 140ft 25kts
11-Jan-17 13:21 33.938695 -118.400716 82 140ft 32kts
11-Jan-17 13:22 33.939720 -118.390721 84 140ft 30kts
11-Jan-17 13:23 33.939892 -118.388264 176 140ft 0kts
11-Jan-17 13:24 33.939889 -118.388264 176 140ft 0kts
11-Jan-17 13:25 33.939887 -118.388263 176 140ft 0kts
11-Jan-17 13:26 33.938716 -118.391018 261 140ft 55kts
11-Jan-17 13:27 33.934754 -118.437563 265 2159ft 170kts
11-Jan-17 13:28 33.918764 -118.502877 248 4158ft 238kts
11-Jan-17 13:29 33.888640 -118.577214 217 7519ft 258kts
11-Jan-17 13:30 33.825062 -118.547829 125 10454ft 317kts
11-Jan-17 13:31 33.819913 -118.430608 58 11582ft 404kts
11-Jan-17 13:32 33.911102 -118.354175 18 14176ft 410kts
11-Jan-17 13:33 34.012142 -118.285812 37 17101ft 434kts
11-Jan-17 13:34 34.086579 -118.163426 50 18984ft 469kts
11-Jan-17 13:35 34.161395 -118.030401 50 20753ft 489kts
11-Jan-17 13:36 34.239068 -117.892143 50 22335ft 506kts
11-Jan-17 13:37 34.319088 -117.749469 49 23751ft 520kts
11-Jan-17 13:38 34.401267 -117.602854 50 25005ft 533kts
11-Jan-17 13:39 34.485109 -117.452723 50 26232ft 544kts
11-Jan-17 13:40 34.570410 -117.299469 50 27398ft 554kts
11-Jan-17 13:41 34.657013 -117.143069 50 28477ft 564kts
11-Jan-17 13:42 34.744616 -116.984092 51 28988ft 567kts
11-Jan-17 13:43 34.832000 -116.824700 51 28963ft 567kts
11-Jan-17 13:44 34.919367 -116.664809 52 28758ft 569kts
11-Jan-17 13:45 35.013528 -116.512187 40 27443ft 559kts
11-Jan-17 13:46 35.119197 -116.380977 38 24073ft 533kts
11-Jan-17 13:47 35.223205 -116.251956 38 23962ft 534kts
11-Jan-17 13:48 35.327092 -116.122190 38 23892ft 535kts
11-Jan-17 13:49 35.428355 -115.995280 39 18961ft 503kts
11-Jan-17 13:50 35.522208 -115.877174 40 14404ft 463kts
11-Jan-17 13:51 35.602818 -115.774305 41 12990ft 359kts
11-Jan-17 13:52 35.669406 -115.688661 40 12982ft 344kts
11-Jan-17 13:53 35.736523 -115.602584 37 12973ft 348kts
11-Jan-17 13:54 35.821472 -115.571789 351 12966ft 313kts
11-Jan-17 13:55 35.908178 -115.567068 351 12965ft 312kts
11-Jan-17 13:56 35.985000 -115.524287 59 12623ft 349kts
11-Jan-17 13:57 36.019404 -115.414737 68 11002ft 314kts
11-Jan-17 13:58 36.026575 -115.308698 98 10168ft 306kts
11-Jan-17 13:59 36.018992 -115.207256 99 9035ft 290kts
11-Jan-17 14:00 36.012396 -115.111302 98 8075ft 261kts
11-Jan-17 14:01 36.007078 -115.027049 98 6614ft 239kts
11-Jan-17 14:02 36.002369 -114.947121 98 5109ft 231kts
11-Jan-17 14:03 36.023035 -114.886418 7 4536ft 206kts
11-Jan-17 14:04 36.067056 -114.914732 285 4518ft 169kts
11-Jan-17 14:05 36.074784 -114.968348 269 4342ft 152kts
11-Jan-17 14:06 36.075523 -115.019044 265 3586ft 146kts
11-Jan-17 14:07 36.077245 -115.069298 265 2966ft 145kts
11-Jan-17 14:08 36.076488 -115.118324 264 2332ft 138kts
11-Jan-17 14:09 36.077511 -115.137902 0 2195ft 4kts
11-Jan-17 14:10 36.077736 -115.137897 0 2195ft 0kts
11-Jan-17 14:11 36.078199 -115.141530 265 2195ft 32kts
11-Jan-17 14:12 36.078795 -115.151886 270 2195ft 25kts
11-Jan-17 14:13 36.081935 -115.152733 352 2195ft 5kts
11-Jan-17 14:14 36.082355 -115.152792 354 2195ft 0kts

Navigation Log

Ident Type
1. KLAX Airport
2. LAX Navaid
3. KEGGS Fix
4. COOPP Fix
5. DAG Navaid
6. DAG Navaid
7. MISEN Fix
8. CLARR Fix
9. SKEBR Fix
10. KEPEC Fix
11. IPUMY Fix
12. NIPZO Fix
13. SUNST Fix
14. KIMME Fix
15. CHIPZ Fix
16. POKRR Fix
17. PRINO Fix
18. KLAS Airport